sensor_id;sensor_type;location;lat;lon;timestamp;temperature;humidity
13464;DHT22;6804;48.774;9.174;2023-08-06T00:01:09;18.70;99.90
13464;DHT22;6804;48.774;9.174;2023-08-06T00:03:36;18.70;99.90
13464;DHT22;6804;48.774;9.174;2023-08-06T00:06:06;18.70;99.90
13464;DHT22;6804;48.774;9.174;2023-08-06T00:08:34;18.70;99.90
13464;DHT22;6804;48.774;9.174;2023-08-06T00:11:02;18.70;99.90
13464;DHT22;6804;48.774;9.174;2023-08-06T00:13:33;18.70;99.90
13464;DHT22;6804;48.774;9.174;2023-08-06T00:16:11;18.70;99.90
13464;DHT22;6804;48.774;9.174;2023-08-06T00:18:42;18.70;99.90
13464;DHT22;6804;48.774;9.174;2023-08-06T00:21:11;18.60;99.90
13464;DHT22;6804;48.774;9.174;2023-08-06T00:23:39;18.60;99.90
13464;DHT22;6804;48.774;9.174;2023-08-06T00:26:07;18.60;99.90
13464;DHT22;6804;48.774;9.174;2023-08-06T00:28:34;18.50;99.90
13464;DHT22;6804;48.774;9.174;2023-08-06T00:31:02;18.50;99.90
13464;DHT22;6804;48.774;9.174;2023-08-06T00:33:31;18.50;99.90
13464;DHT22;6804;48.774;9.174;2023-08-06T00:35:58;18.50;99.90
13464;DHT22;6804;48.774;9.174;2023-08-06T00:38:26;18.40;99.90
13464;DHT22;6804;48.774;9.174;2023-08-06T00:40:53;18.40;99.90
13464;DHT22;6804;48.774;9.174;2023-08-06T00:43:21;18.40;99.90
13464;DHT22;6804;48.774;9.174;2023-08-06T00:45:49;18.30;99.90
13464;DHT22;6804;48.774;9.174;2023-08-06T00:48:19;18.30;99.90
13464;DHT22;6804;48.774;9.174;2023-08-06T00:50:48;18.20;99.90
13464;DHT22;6804;48.774;9.174;2023-08-06T00:53:15;18.20;99.90
13464;DHT22;6804;48.774;9.174;2023-08-06T00:55:44;18.20;99.90
13464;DHT22;6804;48.774;9.174;2023-08-06T00:58:16;18.20;99.90
13464;DHT22;6804;48.774;9.174;2023-08-06T01:00:46;18.10;99.90
13464;DHT22;6804;48.774;9.174;2023-08-06T01:03:15;18.10;99.90
13464;DHT22;6804;48.774;9.174;2023-08-06T01:05:49;18.10;99.90
13464;DHT22;6804;48.774;9.174;2023-08-06T01:08:27;18.10;99.90
13464;DHT22;6804;48.774;9.174;2023-08-06T01:11:16;18.00;99.90
13464;DHT22;6804;48.774;9.174;2023-08-06T01:13:47;18.00;99.90
13464;DHT22;6804;48.774;9.174;2023-08-06T01:16:20;18.00;99.90
13464;DHT22;6804;48.774;9.174;2023-08-06T01:18:58;18.00;99.90
13464;DHT22;6804;48.774;9.174;2023-08-06T01:21:27;18.00;99.90
13464;DHT22;6804;48.774;9.174;2023-08-06T01:23:57;18.00;99.90
13464;DHT22;6804;48.774;9.174;2023-08-06T01:26:35;17.90;99.90
13464;DHT22;6804;48.774;9.174;2023-08-06T01:29:13;17.90;99.90
13464;DHT22;6804;48.774;9.174;2023-08-06T01:31:48;17.90;99.90
13464;DHT22;6804;48.774;9.174;2023-08-06T01:34:23;17.80;99.90
13464;DHT22;6804;48.774;9.174;2023-08-06T01:37:02;17.80;99.90
13464;DHT22;6804;48.774;9.174;2023-08-06T01:39:40;17.80;99.90
13464;DHT22;6804;48.774;9.174;2023-08-06T01:42:11;17.80;99.90
13464;DHT22;6804;48.774;9.174;2023-08-06T01:44:43;17.70;99.90
13464;DHT22;6804;48.774;9.174;2023-08-06T01:50:33;17.70;99.90
13464;DHT22;6804;48.774;9.174;2023-08-06T01:53:02;17.60;99.90
13464;DHT22;6804;48.774;9.174;2023-08-06T01:55:29;17.60;99.90
13464;DHT22;6804;48.774;9.174;2023-08-06T01:58:00;17.60;99.90
13464;DHT22;6804;48.774;9.174;2023-08-06T02:00:30;17.60;99.90
13464;DHT22;6804;48.774;9.174;2023-08-06T02:02:57;17.60;99.90
13464;DHT22;6804;48.774;9.174;2023-08-06T02:05:27;17.60;99.90
13464;DHT22;6804;48.774;9.174;2023-08-06T02:07:55;17.60;99.90
13464;DHT22;6804;48.774;9.174;2023-08-06T02:10:24;17.60;99.90
13464;DHT22;6804;48.774;9.174;2023-08-06T02:12:52;17.50;99.90
13464;DHT22;6804;48.774;9.174;2023-08-06T02:15:19;17.50;99.90
13464;DHT22;6804;48.774;9.174;2023-08-06T02:17:49;17.50;99.90
13464;DHT22;6804;48.774;9.174;2023-08-06T02:20:19;17.50;99.90
13464;DHT22;6804;48.774;9.174;2023-08-06T02:22:47;17.50;99.90
13464;DHT22;6804;48.774;9.174;2023-08-06T02:25:14;17.40;99.90
13464;DHT22;6804;48.774;9.174;2023-08-06T02:27:46;17.40;99.90
13464;DHT22;6804;48.774;9.174;2023-08-06T02:30:13;17.40;99.90
13464;DHT22;6804;48.774;9.174;2023-08-06T02:32:41;17.30;99.90
13464;DHT22;6804;48.774;9.174;2023-08-06T02:35:09;17.30;99.90
13464;DHT22;6804;48.774;9.174;2023-08-06T02:37:36;17.30;99.90
13464;DHT22;6804;48.774;9.174;2023-08-06T02:40:05;17.20;99.90
13464;DHT22;6804;48.774;9.174;2023-08-06T02:42:35;17.20;99.90
13464;DHT22;6804;48.774;9.174;2023-08-06T02:45:08;17.20;99.90
13464;DHT22;6804;48.774;9.174;2023-08-06T02:47:38;17.20;99.90
13464;DHT22;6804;48.774;9.174;2023-08-06T02:50:09;17.20;99.90
13464;DHT22;6804;48.774;9.174;2023-08-06T02:52:37;17.20;99.90
13464;DHT22;6804;48.774;9.174;2023-08-06T02:55:06;17.20;99.90
13464;DHT22;6804;48.774;9.174;2023-08-06T02:57:34;17.20;99.90
13464;DHT22;6804;48.774;9.174;2023-08-06T03:00:02;17.20;99.90
13464;DHT22;6804;48.774;9.174;2023-08-06T03:02:32;17.20;99.90
13464;DHT22;6804;48.774;9.174;2023-08-06T03:05:00;17.20;99.90
13464;DHT22;6804;48.774;9.174;2023-08-06T03:07:30;17.20;99.90
13464;DHT22;6804;48.774;9.174;2023-08-06T03:09:58;17.10;99.90
13464;DHT22;6804;48.774;9.174;2023-08-06T03:12:27;17.10;99.90
13464;DHT22;6804;48.774;9.174;2023-08-06T03:14:54;17.00;99.90
13464;DHT22;6804;48.774;9.174;2023-08-06T03:17:26;17.00;99.90
13464;DHT22;6804;48.774;9.174;2023-08-06T03:19:54;17.00;99.90
13464;DHT22;6804;48.774;9.174;2023-08-06T03:22:29;17.00;99.90
13464;DHT22;6804;48.774;9.174;2023-08-06T03:24:56;16.90;99.90
13464;DHT22;6804;48.774;9.174;2023-08-06T03:27:26;17.00;99.90
13464;DHT22;6804;48.774;9.174;2023-08-06T03:29:53;16.90;99.90
13464;DHT22;6804;48.774;9.174;2023-08-06T03:32:21;17.00;99.90
13464;DHT22;6804;48.774;9.174;2023-08-06T03:34:48;17.00;99.90
13464;DHT22;6804;48.774;9.174;2023-08-06T03:37:20;17.00;99.90
13464;DHT22;6804;48.774;9.174;2023-08-06T03:39:49;17.00;99.90
13464;DHT22;6804;48.774;9.174;2023-08-06T03:42:16;17.00;99.90
13464;DHT22;6804;48.774;9.174;2023-08-06T03:44:43;17.00;99.90
13464;DHT22;6804;48.774;9.174;2023-08-06T03:47:10;17.00;99.90
13464;DHT22;6804;48.774;9.174;2023-08-06T03:49:38;17.00;99.90
13464;DHT22;6804;48.774;9.174;2023-08-06T03:52:06;17.00;99.90
13464;DHT22;6804;48.774;9.174;2023-08-06T03:54:38;17.00;99.90
13464;DHT22;6804;48.774;9.174;2023-08-06T03:57:11;17.10;99.90
13464;DHT22;6804;48.774;9.174;2023-08-06T03:59:39;17.10;99.90
13464;DHT22;6804;48.774;9.174;2023-08-06T04:02:09;17.10;99.90
13464;DHT22;6804;48.774;9.174;2023-08-06T04:04:36;17.10;99.90
13464;DHT22;6804;48.774;9.174;2023-08-06T04:07:04;17.10;99.90
13464;DHT22;6804;48.774;9.174;2023-08-06T04:09:32;17.10;99.90
13464;DHT22;6804;48.774;9.174;2023-08-06T04:12:03;17.10;99.90
13464;DHT22;6804;48.774;9.174;2023-08-06T04:14:31;17.10;99.90
13464;DHT22;6804;48.774;9.174;2023-08-06T04:17:17;17.10;99.90
13464;DHT22;6804;48.774;9.174;2023-08-06T04:19:47;17.10;99.90
13464;DHT22;6804;48.774;9.174;2023-08-06T04:22:15;17.10;99.90
13464;DHT22;6804;48.774;9.174;2023-08-06T04:24:45;17.10;99.90
13464;DHT22;6804;48.774;9.174;2023-08-06T04:27:18;17.20;99.90
13464;DHT22;6804;48.774;9.174;2023-08-06T04:29:46;17.20;99.90
13464;DHT22;6804;48.774;9.174;2023-08-06T04:32:13;17.20;99.90
13464;DHT22;6804;48.774;9.174;2023-08-06T04:34:43;17.20;99.90
13464;DHT22;6804;48.774;9.174;2023-08-06T04:37:11;17.20;99.90
13464;DHT22;6804;48.774;9.174;2023-08-06T04:39:40;17.20;99.90
13464;DHT22;6804;48.774;9.174;2023-08-06T04:42:13;17.20;99.90
13464;DHT22;6804;48.774;9.174;2023-08-06T04:44:45;17.20;99.90
13464;DHT22;6804;48.774;9.174;2023-08-06T04:47:14;17.20;99.90
13464;DHT22;6804;48.774;9.174;2023-08-06T04:49:45;17.20;99.90
13464;DHT22;6804;48.774;9.174;2023-08-06T04:52:13;17.20;99.90
13464;DHT22;6804;48.774;9.174;2023-08-06T04:54:43;17.20;99.90
13464;DHT22;6804;48.774;9.174;2023-08-06T04:57:13;17.20;99.90
13464;DHT22;6804;48.774;9.174;2023-08-06T04:59:41;17.20;99.90
13464;DHT22;6804;48.774;9.174;2023-08-06T05:02:10;17.20;99.90
13464;DHT22;6804;48.774;9.174;2023-08-06T05:04:40;17.20;99.90
13464;DHT22;6804;48.774;9.174;2023-08-06T05:07:07;17.20;99.90
13464;DHT22;6804;48.774;9.174;2023-08-06T05:09:35;17.20;99.90
13464;DHT22;6804;48.774;9.174;2023-08-06T05:12:04;17.20;99.90
13464;DHT22;6804;48.774;9.174;2023-08-06T05:14:31;17.20;99.90
13464;DHT22;6804;48.774;9.174;2023-08-06T05:16:59;17.20;99.90
13464;DHT22;6804;48.774;9.174;2023-08-06T05:19:33;17.30;99.90
13464;DHT22;6804;48.774;9.174;2023-08-06T05:22:02;17.30;99.90
13464;DHT22;6804;48.774;9.174;2023-08-06T05:24:31;17.30;99.90
13464;DHT22;6804;48.774;9.174;2023-08-06T05:27:18;17.20;99.90
13464;DHT22;6804;48.774;9.174;2023-08-06T05:29:48;17.30;99.90
13464;DHT22;6804;48.774;9.174;2023-08-06T05:32:19;17.40;99.90
13464;DHT22;6804;48.774;9.174;2023-08-06T05:34:48;17.50;99.90
13464;DHT22;6804;48.774;9.174;2023-08-06T05:37:17;17.70;99.90
13464;DHT22;6804;48.774;9.174;2023-08-06T05:40:03;17.90;99.90
13464;DHT22;6804;48.774;9.174;2023-08-06T05:42:30;17.90;99.90
13464;DHT22;6804;48.774;9.174;2023-08-06T05:45:00;18.00;99.90
13464;DHT22;6804;48.774;9.174;2023-08-06T05:47:30;18.00;99.90
13464;DHT22;6804;48.774;9.174;2023-08-06T05:49:59;18.00;99.90
13464;DHT22;6804;48.774;9.174;2023-08-06T05:52:26;18.00;99.90
13464;DHT22;6804;48.774;9.174;2023-08-06T05:54:59;18.00;99.90
13464;DHT22;6804;48.774;9.174;2023-08-06T05:57:30;18.00;99.90
13464;DHT22;6804;48.774;9.174;2023-08-06T05:59:59;18.00;99.90
13464;DHT22;6804;48.774;9.174;2023-08-06T06:02:27;17.90;99.90
13464;DHT22;6804;48.774;9.174;2023-08-06T06:04:56;17.90;99.90
13464;DHT22;6804;48.774;9.174;2023-08-06T06:07:25;17.80;99.90
13464;DHT22;6804;48.774;9.174;2023-08-06T06:09:53;17.70;99.90
13464;DHT22;6804;48.774;9.174;2023-08-06T06:12:21;17.70;99.90
13464;DHT22;6804;48.774;9.174;2023-08-06T06:14:53;17.60;99.90
13464;DHT22;6804;48.774;9.174;2023-08-06T06:17:25;17.60;99.90
13464;DHT22;6804;48.774;9.174;2023-08-06T06:19:53;17.50;99.90
13464;DHT22;6804;48.774;9.174;2023-08-06T06:22:21;17.40;99.90
13464;DHT22;6804;48.774;9.174;2023-08-06T06:24:50;17.40;99.90
13464;DHT22;6804;48.774;9.174;2023-08-06T06:27:18;17.40;99.90
13464;DHT22;6804;48.774;9.174;2023-08-06T06:29:45;17.40;99.90
13464;DHT22;6804;48.774;9.174;2023-08-06T06:32:15;17.40;99.90
13464;DHT22;6804;48.774;9.174;2023-08-06T06:34:43;17.30;99.90
13464;DHT22;6804;48.774;9.174;2023-08-06T06:37:12;17.30;99.90
13464;DHT22;6804;48.774;9.174;2023-08-06T06:39:46;17.30;99.90
13464;DHT22;6804;48.774;9.174;2023-08-06T06:42:15;17.30;99.90
13464;DHT22;6804;48.774;9.174;2023-08-06T06:44:44;17.30;99.90
13464;DHT22;6804;48.774;9.174;2023-08-06T06:47:12;17.30;99.90
13464;DHT22;6804;48.774;9.174;2023-08-06T06:49:40;17.40;99.90
13464;DHT22;6804;48.774;9.174;2023-08-06T06:52:07;17.40;99.90
13464;DHT22;6804;48.774;9.174;2023-08-06T06:54:36;17.50;99.90
13464;DHT22;6804;48.774;9.174;2023-08-06T06:57:09;17.60;99.90
13464;DHT22;6804;48.774;9.174;2023-08-06T06:59:37;17.60;99.90
13464;DHT22;6804;48.774;9.174;2023-08-06T07:02:08;17.50;99.90
13464;DHT22;6804;48.774;9.174;2023-08-06T07:04:38;17.50;99.90
13464;DHT22;6804;48.774;9.174;2023-08-06T07:07:05;17.40;99.90
13464;DHT22;6804;48.774;9.174;2023-08-06T07:09:34;17.40;99.90
13464;DHT22;6804;48.774;9.174;2023-08-06T07:12:20;17.40;99.90
13464;DHT22;6804;48.774;9.174;2023-08-06T07:14:51;17.40;99.90
13464;DHT22;6804;48.774;9.174;2023-08-06T07:17:18;17.40;99.90
13464;DHT22;6804;48.774;9.174;2023-08-06T07:20:07;17.30;99.90
13464;DHT22;6804;48.774;9.174;2023-08-06T07:22:53;17.30;99.90
13464;DHT22;6804;48.774;9.174;2023-08-06T07:25:26;17.20;99.90
13464;DHT22;6804;48.774;9.174;2023-08-06T07:27:56;17.20;99.90
13464;DHT22;6804;48.774;9.174;2023-08-06T07:30:27;17.20;99.90
13464;DHT22;6804;48.774;9.174;2023-08-06T07:32:57;17.20;99.90
13464;DHT22;6804;48.774;9.174;2023-08-06T07:35:43;17.20;99.90
13464;DHT22;6804;48.774;9.174;2023-08-06T07:38:13;17.10;99.90
13464;DHT22;6804;48.774;9.174;2023-08-06T07:40:45;17.10;99.90
13464;DHT22;6804;48.774;9.174;2023-08-06T07:43:13;17.10;99.90
13464;DHT22;6804;48.774;9.174;2023-08-06T07:45:42;17.10;99.90
13464;DHT22;6804;48.774;9.174;2023-08-06T07:48:31;17.10;99.90
13464;DHT22;6804;48.774;9.174;2023-08-06T07:50:58;17.10;99.90
13464;DHT22;6804;48.774;9.174;2023-08-06T07:53:27;17.00;99.90
13464;DHT22;6804;48.774;9.174;2023-08-06T07:55:58;17.00;99.90
13464;DHT22;6804;48.774;9.174;2023-08-06T07:58:28;17.10;99.90
13464;DHT22;6804;48.774;9.174;2023-08-06T08:00:57;17.10;99.90
13464;DHT22;6804;48.774;9.174;2023-08-06T08:03:31;17.10;99.90
13464;DHT22;6804;48.774;9.174;2023-08-06T08:05:58;17.10;99.90
13464;DHT22;6804;48.774;9.174;2023-08-06T08:08:27;17.20;99.90
13464;DHT22;6804;48.774;9.174;2023-08-06T08:10:57;17.20;99.90
13464;DHT22;6804;48.774;9.174;2023-08-06T08:13:28;17.20;99.90
13464;DHT22;6804;48.774;9.174;2023-08-06T08:15:58;17.30;99.90
13464;DHT22;6804;48.774;9.174;2023-08-06T08:18:27;17.30;99.90
13464;DHT22;6804;48.774;9.174;2023-08-06T08:20:55;17.40;99.90
13464;DHT22;6804;48.774;9.174;2023-08-06T08:23:27;17.50;99.90
13464;DHT22;6804;48.774;9.174;2023-08-06T08:25:57;17.50;99.90
13464;DHT22;6804;48.774;9.174;2023-08-06T08:28:44;17.60;99.90
13464;DHT22;6804;48.774;9.174;2023-08-06T08:31:15;17.70;99.90
13464;DHT22;6804;48.774;9.174;2023-08-06T08:33:56;17.80;99.90
13464;DHT22;6804;48.774;9.174;2023-08-06T08:36:24;17.90;99.90
13464;DHT22;6804;48.774;9.174;2023-08-06T08:38:53;18.10;99.90
13464;DHT22;6804;48.774;9.174;2023-08-06T08:41:20;18.10;99.90
13464;DHT22;6804;48.774;9.174;2023-08-06T08:43:50;18.10;99.90
13464;DHT22;6804;48.774;9.174;2023-08-06T08:46:22;18.10;99.90
13464;DHT22;6804;48.774;9.174;2023-08-06T08:48:52;18.10;99.90
13464;DHT22;6804;48.774;9.174;2023-08-06T08:51:23;18.10;99.90
13464;DHT22;6804;48.774;9.174;2023-08-06T08:53:53;18.10;99.90
13464;DHT22;6804;48.774;9.174;2023-08-06T08:56:30;18.00;99.90
13464;DHT22;6804;48.774;9.174;2023-08-06T08:59:00;17.90;99.90
13464;DHT22;6804;48.774;9.174;2023-08-06T09:01:33;17.80;99.90
13464;DHT22;6804;48.774;9.174;2023-08-06T09:04:02;17.80;99.90
13464;DHT22;6804;48.774;9.174;2023-08-06T09:06:30;17.80;99.90
13464;DHT22;6804;48.774;9.174;2023-08-06T09:09:05;17.90;99.90
13464;DHT22;6804;48.774;9.174;2023-08-06T09:11:43;17.90;99.90
13464;DHT22;6804;48.774;9.174;2023-08-06T09:14:11;17.90;99.90
13464;DHT22;6804;48.774;9.174;2023-08-06T09:16:41;17.90;99.90
13464;DHT22;6804;48.774;9.174;2023-08-06T09:19:11;17.90;99.90
13464;DHT22;6804;48.774;9.174;2023-08-06T09:21:39;17.90;99.90
13464;DHT22;6804;48.774;9.174;2023-08-06T09:24:11;18.00;99.90
13464;DHT22;6804;48.774;9.174;2023-08-06T09:26:44;18.00;99.90
13464;DHT22;6804;48.774;9.174;2023-08-06T09:29:13;18.10;99.90
13464;DHT22;6804;48.774;9.174;2023-08-06T09:31:43;18.20;99.90
13464;DHT22;6804;48.774;9.174;2023-08-06T09:34:11;18.30;99.90
13464;DHT22;6804;48.774;9.174;2023-08-06T09:36:41;18.40;99.90
13464;DHT22;6804;48.774;9.174;2023-08-06T09:39:13;18.50;99.90
13464;DHT22;6804;48.774;9.174;2023-08-06T09:42:00;18.60;99.90
13464;DHT22;6804;48.774;9.174;2023-08-06T09:44:30;18.60;99.90
13464;DHT22;6804;48.774;9.174;2023-08-06T09:47:01;18.60;99.90
13464;DHT22;6804;48.774;9.174;2023-08-06T09:49:52;18.60;99.90
13464;DHT22;6804;48.774;9.174;2023-08-06T09:52:23;18.60;99.90
13464;DHT22;6804;48.774;9.174;2023-08-06T09:54:52;18.50;99.90
13464;DHT22;6804;48.774;9.174;2023-08-06T09:57:24;18.50;99.90
13464;DHT22;6804;48.774;9.174;2023-08-06T09:59:52;18.50;99.90
13464;DHT22;6804;48.774;9.174;2023-08-06T10:02:25;18.50;99.90
13464;DHT22;6804;48.774;9.174;2023-08-06T10:04:55;18.40;99.90
13464;DHT22;6804;48.774;9.174;2023-08-06T10:07:25;18.40;99.90
13464;DHT22;6804;48.774;9.174;2023-08-06T10:09:53;18.40;99.90
13464;DHT22;6804;48.774;9.174;2023-08-06T10:12:21;18.40;99.90
13464;DHT22;6804;48.774;9.174;2023-08-06T10:14:53;18.30;99.90
13464;DHT22;6804;48.774;9.174;2023-08-06T10:17:23;18.20;99.90
13464;DHT22;6804;48.774;9.174;2023-08-06T10:19:51;18.10;99.90
13464;DHT22;6804;48.774;9.174;2023-08-06T10:22:23;18.10;99.90
13464;DHT22;6804;48.774;9.174;2023-08-06T10:24:54;18.10;99.90
13464;DHT22;6804;48.774;9.174;2023-08-06T10:27:23;18.10;99.90
13464;DHT22;6804;48.774;9.174;2023-08-06T10:29:51;18.10;99.90
13464;DHT22;6804;48.774;9.174;2023-08-06T10:32:20;18.00;99.90
13464;DHT22;6804;48.774;9.174;2023-08-06T10:34:57;17.90;99.90
13464;DHT22;6804;48.774;9.174;2023-08-06T10:37:34;18.00;99.90
13464;DHT22;6804;48.774;9.174;2023-08-06T10:40:03;18.00;99.90
13464;DHT22;6804;48.774;9.174;2023-08-06T10:42:31;18.00;99.90
13464;DHT22;6804;48.774;9.174;2023-08-06T10:45:14;18.00;99.90
13464;DHT22;6804;48.774;9.174;2023-08-06T10:47:44;18.10;99.90
13464;DHT22;6804;48.774;9.174;2023-08-06T10:50:14;18.10;99.90
13464;DHT22;6804;48.774;9.174;2023-08-06T10:52:43;18.10;99.90
13464;DHT22;6804;48.774;9.174;2023-08-06T10:55:13;18.10;99.90
13464;DHT22;6804;48.774;9.174;2023-08-06T10:57:42;18.20;99.90
13464;DHT22;6804;48.774;9.174;2023-08-06T11:00:11;18.20;99.90
13464;DHT22;6804;48.774;9.174;2023-08-06T11:02:40;18.10;99.90
13464;DHT22;6804;48.774;9.174;2023-08-06T11:05:08;18.10;99.90
13464;DHT22;6804;48.774;9.174;2023-08-06T11:08:00;18.10;99.90
13464;DHT22;6804;48.774;9.174;2023-08-06T11:10:35;18.00;99.90
13464;DHT22;6804;48.774;9.174;2023-08-06T11:13:03;17.90;99.90
13464;DHT22;6804;48.774;9.174;2023-08-06T11:15:32;17.80;99.90
13464;DHT22;6804;48.774;9.174;2023-08-06T11:18:00;17.80;99.90
13464;DHT22;6804;48.774;9.174;2023-08-06T11:20:28;17.80;99.90
13464;DHT22;6804;48.774;9.174;2023-08-06T11:22:56;17.70;99.90
13464;DHT22;6804;48.774;9.174;2023-08-06T11:25:25;17.70;99.90
13464;DHT22;6804;48.774;9.174;2023-08-06T11:27:54;17.70;99.90
13464;DHT22;6804;48.774;9.174;2023-08-06T11:30:21;17.60;99.90
13464;DHT22;6804;48.774;9.174;2023-08-06T11:32:58;17.60;99.90
13464;DHT22;6804;48.774;9.174;2023-08-06T11:35:34;17.60;99.90
13464;DHT22;6804;48.774;9.174;2023-08-06T11:38:02;17.70;99.90
13464;DHT22;6804;48.774;9.174;2023-08-06T11:40:32;17.70;99.90
13464;DHT22;6804;48.774;9.174;2023-08-06T11:43:00;17.70;99.90
13464;DHT22;6804;48.774;9.174;2023-08-06T11:45:28;17.70;99.90
13464;DHT22;6804;48.774;9.174;2023-08-06T11:47:55;17.60;99.90
13464;DHT22;6804;48.774;9.174;2023-08-06T11:50:27;17.60;99.90
13464;DHT22;6804;48.774;9.174;2023-08-06T11:52:59;17.60;99.90
13464;DHT22;6804;48.774;9.174;2023-08-06T11:55:28;17.50;99.90
13464;DHT22;6804;48.774;9.174;2023-08-06T11:58:03;17.40;99.90
13464;DHT22;6804;48.774;9.174;2023-08-06T12:00:31;17.30;99.90
13464;DHT22;6804;48.774;9.174;2023-08-06T12:03:05;17.30;99.90
13464;DHT22;6804;48.774;9.174;2023-08-06T12:05:34;17.20;99.90
13464;DHT22;6804;48.774;9.174;2023-08-06T12:08:03;17.20;99.90
13464;DHT22;6804;48.774;9.174;2023-08-06T12:10:32;17.10;99.90
13464;DHT22;6804;48.774;9.174;2023-08-06T12:13:02;17.10;99.90
13464;DHT22;6804;48.774;9.174;2023-08-06T12:15:31;17.00;99.90
13464;DHT22;6804;48.774;9.174;2023-08-06T12:18:19;17.10;99.90
13464;DHT22;6804;48.774;9.174;2023-08-06T12:20:46;17.10;99.90
13464;DHT22;6804;48.774;9.174;2023-08-06T12:23:14;17.00;99.90
13464;DHT22;6804;48.774;9.174;2023-08-06T12:25:42;17.00;99.90
13464;DHT22;6804;48.774;9.174;2023-08-06T12:28:18;17.00;99.90
13464;DHT22;6804;48.774;9.174;2023-08-06T12:30:49;17.00;99.90
13464;DHT22;6804;48.774;9.174;2023-08-06T12:33:22;17.00;99.90
13464;DHT22;6804;48.774;9.174;2023-08-06T12:35:53;17.00;99.90
13464;DHT22;6804;48.774;9.174;2023-08-06T12:38:27;17.00;99.90
13464;DHT22;6804;48.774;9.174;2023-08-06T12:40:59;17.10;99.90
13464;DHT22;6804;48.774;9.174;2023-08-06T12:43:29;17.20;99.90
13464;DHT22;6804;48.774;9.174;2023-08-06T12:45:57;17.30;99.90
13464;DHT22;6804;48.774;9.174;2023-08-06T12:48:25;17.30;99.90
13464;DHT22;6804;48.774;9.174;2023-08-06T12:50:53;17.40;99.90
13464;DHT22;6804;48.774;9.174;2023-08-06T12:53:26;17.50;99.90
13464;DHT22;6804;48.774;9.174;2023-08-06T12:55:56;17.60;99.90
13464;DHT22;6804;48.774;9.174;2023-08-06T12:58:35;17.70;99.90
13464;DHT22;6804;48.774;9.174;2023-08-06T13:01:03;17.90;99.90
13464;DHT22;6804;48.774;9.174;2023-08-06T13:03:38;17.90;99.90
13464;DHT22;6804;48.774;9.174;2023-08-06T13:06:05;17.90;99.90
13464;DHT22;6804;48.774;9.174;2023-08-06T13:08:53;18.00;99.90
13464;DHT22;6804;48.774;9.174;2023-08-06T13:11:23;17.90;99.90
13464;DHT22;6804;48.774;9.174;2023-08-06T13:14:03;18.00;99.90
13464;DHT22;6804;48.774;9.174;2023-08-06T13:16:40;18.00;99.90
13464;DHT22;6804;48.774;9.174;2023-08-06T13:19:10;18.00;99.90
13464;DHT22;6804;48.774;9.174;2023-08-06T13:22:00;18.00;99.90
13464;DHT22;6804;48.774;9.174;2023-08-06T13:24:30;18.00;99.90
13464;DHT22;6804;48.774;9.174;2023-08-06T13:27:01;18.00;99.90
13464;DHT22;6804;48.774;9.174;2023-08-06T13:29:31;18.10;99.90
13464;DHT22;6804;48.774;9.174;2023-08-06T13:31:58;18.10;99.90
13464;DHT22;6804;48.774;9.174;2023-08-06T13:34:28;18.20;99.90
13464;DHT22;6804;48.774;9.174;2023-08-06T13:36:58;18.20;99.90
13464;DHT22;6804;48.774;9.174;2023-08-06T13:39:26;18.30;99.90
13464;DHT22;6804;48.774;9.174;2023-08-06T13:41:57;18.30;99.90
13464;DHT22;6804;48.774;9.174;2023-08-06T13:44:25;18.30;99.90
13464;DHT22;6804;48.774;9.174;2023-08-06T13:46:58;18.30;99.90
13464;DHT22;6804;48.774;9.174;2023-08-06T13:49:27;18.30;99.90
13464;DHT22;6804;48.774;9.174;2023-08-06T13:52:13;18.20;99.90
13464;DHT22;6804;48.774;9.174;2023-08-06T13:54:45;18.20;99.90
13464;DHT22;6804;48.774;9.174;2023-08-06T13:57:16;18.10;99.90
13464;DHT22;6804;48.774;9.174;2023-08-06T14:00:03;18.10;99.90
13464;DHT22;6804;48.774;9.174;2023-08-06T14:02:34;18.10;99.90
13464;DHT22;6804;48.774;9.174;2023-08-06T14:05:09;18.20;99.90
13464;DHT22;6804;48.774;9.174;2023-08-06T14:07:38;18.30;99.90
13464;DHT22;6804;48.774;9.174;2023-08-06T14:10:09;18.30;99.90
13464;DHT22;6804;48.774;9.174;2023-08-06T14:12:39;18.20;99.90
13464;DHT22;6804;48.774;9.174;2023-08-06T14:15:11;18.10;99.90
13464;DHT22;6804;48.774;9.174;2023-08-06T14:17:40;18.10;99.90
13464;DHT22;6804;48.774;9.174;2023-08-06T14:20:11;18.10;99.90
13464;DHT22;6804;48.774;9.174;2023-08-06T14:22:38;18.10;99.90
13464;DHT22;6804;48.774;9.174;2023-08-06T14:25:11;18.10;99.90
13464;DHT22;6804;48.774;9.174;2023-08-06T14:27:41;18.20;99.90
13464;DHT22;6804;48.774;9.174;2023-08-06T14:30:09;18.20;99.90
13464;DHT22;6804;48.774;9.174;2023-08-06T14:32:59;18.20;99.90
13464;DHT22;6804;48.774;9.174;2023-08-06T14:35:31;18.20;99.90
13464;DHT22;6804;48.774;9.174;2023-08-06T14:37:59;18.20;99.90
13464;DHT22;6804;48.774;9.174;2023-08-06T14:40:27;18.20;99.90
13464;DHT22;6804;48.774;9.174;2023-08-06T14:43:01;18.20;99.90
13464;DHT22;6804;48.774;9.174;2023-08-06T14:45:29;18.20;99.90
13464;DHT22;6804;48.774;9.174;2023-08-06T14:48:00;18.10;99.90
13464;DHT22;6804;48.774;9.174;2023-08-06T14:50:30;18.10;99.90
13464;DHT22;6804;48.774;9.174;2023-08-06T14:53:00;18.00;99.90
13464;DHT22;6804;48.774;9.174;2023-08-06T14:55:29;17.90;99.90
13464;DHT22;6804;48.774;9.174;2023-08-06T14:58:00;17.80;99.90
13464;DHT22;6804;48.774;9.174;2023-08-06T15:00:28;17.80;99.90
13464;DHT22;6804;48.774;9.174;2023-08-06T15:02:56;17.70;99.90
13464;DHT22;6804;48.774;9.174;2023-08-06T15:05:28;17.60;99.90
13464;DHT22;6804;48.774;9.174;2023-08-06T15:07:57;17.50;99.90
13464;DHT22;6804;48.774;9.174;2023-08-06T15:10:28;17.40;99.90
13464;DHT22;6804;48.774;9.174;2023-08-06T15:12:57;17.40;99.90
13464;DHT22;6804;48.774;9.174;2023-08-06T15:15:27;17.40;99.90
13464;DHT22;6804;48.774;9.174;2023-08-06T15:17:59;17.40;99.90
13464;DHT22;6804;48.774;9.174;2023-08-06T15:20:28;17.60;99.90
13464;DHT22;6804;48.774;9.174;2023-08-06T15:22:58;17.60;99.90
13464;DHT22;6804;48.774;9.174;2023-08-06T15:25:31;17.70;99.90
13464;DHT22;6804;48.774;9.174;2023-08-06T15:28:03;17.90;99.90
13464;DHT22;6804;48.774;9.174;2023-08-06T15:30:31;18.00;99.90
13464;DHT22;6804;48.774;9.174;2023-08-06T15:33:01;18.00;99.90
13464;DHT22;6804;48.774;9.174;2023-08-06T15:35:31;18.10;99.90
13464;DHT22;6804;48.774;9.174;2023-08-06T15:38:02;18.30;99.90
13464;DHT22;6804;48.774;9.174;2023-08-06T15:40:34;18.40;99.90
13464;DHT22;6804;48.774;9.174;2023-08-06T15:43:02;18.50;99.90
13464;DHT22;6804;48.774;9.174;2023-08-06T15:45:35;18.60;99.90
13464;DHT22;6804;48.774;9.174;2023-08-06T15:48:05;18.60;99.90
13464;DHT22;6804;48.774;9.174;2023-08-06T15:50:38;18.60;99.90
13464;DHT22;6804;48.774;9.174;2023-08-06T15:53:10;18.70;99.90
13464;DHT22;6804;48.774;9.174;2023-08-06T15:55:38;18.80;99.90
13464;DHT22;6804;48.774;9.174;2023-08-06T15:58:09;18.90;99.90
13464;DHT22;6804;48.774;9.174;2023-08-06T16:00:38;18.90;99.90
13464;DHT22;6804;48.774;9.174;2023-08-06T16:03:08;19.00;99.90
13464;DHT22;6804;48.774;9.174;2023-08-06T16:05:37;18.90;99.90
13464;DHT22;6804;48.774;9.174;2023-08-06T16:08:05;18.90;99.90
13464;DHT22;6804;48.774;9.174;2023-08-06T16:10:33;18.90;99.90